sensor_id;sensor_type;location;lat;lon;timestamp;P1;durP1;ratioP1;P2;durP2;ratioP2
19255;SDS011;9762;52.490;13.410;2023-04-06T00:01:48;6.23;;;5.63;;
19255;SDS011;9762;52.490;13.410;2023-04-06T00:04:15;9.83;;;6.33;;
19255;SDS011;9762;52.490;13.410;2023-04-06T00:06:41;10.67;;;6.00;;
19255;SDS011;9762;52.490;13.410;2023-04-06T00:09:07;6.77;;;5.67;;
19255;SDS011;9762;52.490;13.410;2023-04-06T00:11:33;6.03;;;5.53;;
19255;SDS011;9762;52.490;13.410;2023-04-06T00:13:59;7.80;;;5.43;;
19255;SDS011;9762;52.490;13.410;2023-04-06T00:16:25;9.77;;;6.63;;
19255;SDS011;9762;52.490;13.410;2023-04-06T00:18:51;8.00;;;6.33;;
19255;SDS011;9762;52.490;13.410;2023-04-06T00:21:17;7.00;;;5.63;;
19255;SDS011;9762;52.490;13.410;2023-04-06T00:23:43;7.23;;;5.73;;
19255;SDS011;9762;52.490;13.410;2023-04-06T00:26:08;9.27;;;5.67;;
19255;SDS011;9762;52.490;13.410;2023-04-06T00:28:35;7.27;;;5.57;;
19255;SDS011;9762;52.490;13.410;2023-04-06T00:31:02;7.27;;;5.43;;
19255;SDS011;9762;52.490;13.410;2023-04-06T00:33:27;5.73;;;5.23;;
19255;SDS011;9762;52.490;13.410;2023-04-06T00:35:53;7.07;;;5.30;;
19255;SDS011;9762;52.490;13.410;2023-04-06T00:38:19;5.60;;;5.00;;
19255;SDS011;9762;52.490;13.410;2023-04-06T00:40:45;5.80;;;5.20;;
19255;SDS011;9762;52.490;13.410;2023-04-06T00:43:11;10.10;;;6.23;;
19255;SDS011;9762;52.490;13.410;2023-04-06T00:45:38;8.97;;;5.83;;
19255;SDS011;9762;52.490;13.410;2023-04-06T00:48:05;6.63;;;4.93;;
19255;SDS011;9762;52.490;13.410;2023-04-06T00:50:31;8.33;;;6.07;;
19255;SDS011;9762;52.490;13.410;2023-04-06T00:52:57;7.83;;;5.77;;
19255;SDS011;9762;52.490;13.410;2023-04-06T00:55:23;8.10;;;5.83;;
19255;SDS011;9762;52.490;13.410;2023-04-06T00:57:49;7.97;;;6.10;;
19255;SDS011;9762;52.490;13.410;2023-04-06T01:00:15;6.33;;;5.30;;
19255;SDS011;9762;52.490;13.410;2023-04-06T01:02:41;10.30;;;5.63;;
19255;SDS011;9762;52.490;13.410;2023-04-06T01:05:07;9.30;;;6.00;;
19255;SDS011;9762;52.490;13.410;2023-04-06T01:07:33;8.17;;;6.03;;
19255;SDS011;9762;52.490;13.410;2023-04-06T01:09:59;7.87;;;5.50;;
19255;SDS011;9762;52.490;13.410;2023-04-06T01:12:25;7.70;;;5.87;;
19255;SDS011;9762;52.490;13.410;2023-04-06T01:14:50;7.80;;;5.47;;
19255;SDS011;9762;52.490;13.410;2023-04-06T01:17:16;9.60;;;6.03;;
19255;SDS011;9762;52.490;13.410;2023-04-06T01:19:42;6.00;;;5.40;;
19255;SDS011;9762;52.490;13.410;2023-04-06T01:22:13;6.27;;;4.97;;
19255;SDS011;9762;52.490;13.410;2023-04-06T01:24:42;7.13;;;5.70;;
19255;SDS011;9762;52.490;13.410;2023-04-06T01:27:08;7.10;;;5.33;;
19255;SDS011;9762;52.490;13.410;2023-04-06T01:29:33;7.73;;;5.00;;
19255;SDS011;9762;52.490;13.410;2023-04-06T01:31:59;8.03;;;5.30;;
19255;SDS011;9762;52.490;13.410;2023-04-06T01:34:25;10.67;;;6.07;;
19255;SDS011;9762;52.490;13.410;2023-04-06T01:36:51;7.20;;;5.53;;
19255;SDS011;9762;52.490;13.410;2023-04-06T01:39:16;8.53;;;5.53;;
19255;SDS011;9762;52.490;13.410;2023-04-06T01:41:42;12.67;;;5.43;;
19255;SDS011;9762;52.490;13.410;2023-04-06T01:44:08;7.23;;;5.53;;
19255;SDS011;9762;52.490;13.410;2023-04-06T01:46:33;7.43;;;5.33;;
19255;SDS011;9762;52.490;13.410;2023-04-06T01:48:59;7.10;;;5.60;;
19255;SDS011;9762;52.490;13.410;2023-04-06T01:51:25;6.47;;;4.80;;
19255;SDS011;9762;52.490;13.410;2023-04-06T01:53:51;5.80;;;5.20;;
19255;SDS011;9762;52.490;13.410;2023-04-06T01:56:17;6.67;;;4.53;;
19255;SDS011;9762;52.490;13.410;2023-04-06T01:58:43;7.70;;;4.83;;
19255;SDS011;9762;52.490;13.410;2023-04-06T02:01:08;6.60;;;4.90;;
19255;SDS011;9762;52.490;13.410;2023-04-06T02:03:34;8.53;;;5.10;;
19255;SDS011;9762;52.490;13.410;2023-04-06T02:06:00;7.27;;;5.03;;
19255;SDS011;9762;52.490;13.410;2023-04-06T02:08:26;6.93;;;4.50;;
19255;SDS011;9762;52.490;13.410;2023-04-06T02:10:51;7.57;;;5.93;;
19255;SDS011;9762;52.490;13.410;2023-04-06T02:13:17;7.90;;;5.17;;
19255;SDS011;9762;52.490;13.410;2023-04-06T02:15:43;6.93;;;5.03;;
19255;SDS011;9762;52.490;13.410;2023-04-06T02:18:08;6.00;;;5.27;;
19255;SDS011;9762;52.490;13.410;2023-04-06T02:20:35;5.20;;;4.70;;
19255;SDS011;9762;52.490;13.410;2023-04-06T02:23:00;5.77;;;4.90;;
19255;SDS011;9762;52.490;13.410;2023-04-06T02:25:26;5.27;;;4.43;;
19255;SDS011;9762;52.490;13.410;2023-04-06T02:27:52;5.27;;;4.83;;
19255;SDS011;9762;52.490;13.410;2023-04-06T02:30:17;6.83;;;5.10;;
19255;SDS011;9762;52.490;13.410;2023-04-06T02:32:43;5.50;;;5.00;;
19255;SDS011;9762;52.490;13.410;2023-04-06T02:35:09;4.50;;;4.10;;
19255;SDS011;9762;52.490;13.410;2023-04-06T02:37:34;6.20;;;5.37;;
19255;SDS011;9762;52.490;13.410;2023-04-06T02:40:00;9.30;;;5.00;;
19255;SDS011;9762;52.490;13.410;2023-04-06T02:42:26;9.10;;;4.90;;
19255;SDS011;9762;52.490;13.410;2023-04-06T02:44:51;6.37;;;4.37;;
19255;SDS011;9762;52.490;13.410;2023-04-06T02:47:17;4.73;;;4.33;;
19255;SDS011;9762;52.490;13.410;2023-04-06T02:49:43;5.30;;;4.80;;
19255;SDS011;9762;52.490;13.410;2023-04-06T02:52:08;7.77;;;5.13;;
19255;SDS011;9762;52.490;13.410;2023-04-06T02:54:34;5.30;;;4.87;;
19255;SDS011;9762;52.490;13.410;2023-04-06T02:57:00;6.77;;;4.87;;
19255;SDS011;9762;52.490;13.410;2023-04-06T02:59:26;5.80;;;4.77;;
19255;SDS011;9762;52.490;13.410;2023-04-06T03:01:52;4.93;;;4.43;;
19255;SDS011;9762;52.490;13.410;2023-04-06T03:04:17;10.43;;;4.73;;
19255;SDS011;9762;52.490;13.410;2023-04-06T03:06:43;5.30;;;4.80;;
19255;SDS011;9762;52.490;13.410;2023-04-06T03:09:09;6.77;;;4.77;;
19255;SDS011;9762;52.490;13.410;2023-04-06T03:11:34;9.20;;;4.83;;
19255;SDS011;9762;52.490;13.410;2023-04-06T03:14:00;6.37;;;5.23;;
19255;SDS011;9762;52.490;13.410;2023-04-06T03:16:26;5.53;;;4.70;;
19255;SDS011;9762;52.490;13.410;2023-04-06T03:18:52;5.60;;;5.10;;
19255;SDS011;9762;52.490;13.410;2023-04-06T03:21:17;5.37;;;4.27;;
19255;SDS011;9762;52.490;13.410;2023-04-06T03:23:44;5.10;;;4.17;;
19255;SDS011;9762;52.490;13.410;2023-04-06T03:26:10;8.97;;;5.07;;
19255;SDS011;9762;52.490;13.410;2023-04-06T03:28:36;6.30;;;5.10;;
19255;SDS011;9762;52.490;13.410;2023-04-06T03:31:01;5.70;;;4.50;;
19255;SDS011;9762;52.490;13.410;2023-04-06T03:33:27;6.30;;;4.50;;
19255;SDS011;9762;52.490;13.410;2023-04-06T03:35:53;5.47;;;4.70;;
19255;SDS011;9762;52.490;13.410;2023-04-06T03:38:19;5.13;;;4.63;;
19255;SDS011;9762;52.490;13.410;2023-04-06T03:40:45;4.83;;;4.43;;
19255;SDS011;9762;52.490;13.410;2023-04-06T03:43:11;5.70;;;5.10;;
19255;SDS011;9762;52.490;13.410;2023-04-06T03:45:36;5.40;;;5.00;;
19255;SDS011;9762;52.490;13.410;2023-04-06T03:48:02;6.67;;;5.33;;
19255;SDS011;9762;52.490;13.410;2023-04-06T03:50:28;7.30;;;5.50;;
19255;SDS011;9762;52.490;13.410;2023-04-06T03:52:54;6.30;;;5.80;;
19255;SDS011;9762;52.490;13.410;2023-04-06T03:55:20;7.70;;;5.43;;
19255;SDS011;9762;52.490;13.410;2023-04-06T03:57:46;6.80;;;5.20;;
19255;SDS011;9762;52.490;13.410;2023-04-06T04:00:11;5.93;;;5.20;;
19255;SDS011;9762;52.490;13.410;2023-04-06T04:02:38;6.83;;;5.87;;
19255;SDS011;9762;52.490;13.410;2023-04-06T04:05:04;7.07;;;6.07;;
19255;SDS011;9762;52.490;13.410;2023-04-06T04:07:30;6.73;;;5.50;;
19255;SDS011;9762;52.490;13.410;2023-04-06T04:09:56;6.53;;;5.90;;
19255;SDS011;9762;52.490;13.410;2023-04-06T04:12:22;6.27;;;5.73;;
19255;SDS011;9762;52.490;13.410;2023-04-06T04:14:47;6.37;;;5.40;;
19255;SDS011;9762;52.490;13.410;2023-04-06T04:17:13;7.50;;;6.07;;
19255;SDS011;9762;52.490;13.410;2023-04-06T04:19:39;8.03;;;5.87;;
19255;SDS011;9762;52.490;13.410;2023-04-06T04:22:04;6.00;;;5.50;;
19255;SDS011;9762;52.490;13.410;2023-04-06T04:24:31;8.73;;;6.10;;
19255;SDS011;9762;52.490;13.410;2023-04-06T04:26:57;7.90;;;6.13;;
19255;SDS011;9762;52.490;13.410;2023-04-06T04:29:22;6.73;;;6.03;;
19255;SDS011;9762;52.490;13.410;2023-04-06T04:31:48;7.43;;;6.13;;
19255;SDS011;9762;52.490;13.410;2023-04-06T04:34:15;7.73;;;6.37;;
19255;SDS011;9762;52.490;13.410;2023-04-06T04:36:40;7.90;;;6.87;;
19255;SDS011;9762;52.490;13.410;2023-04-06T04:39:09;8.77;;;6.73;;
19255;SDS011;9762;52.490;13.410;2023-04-06T04:41:35;6.77;;;6.13;;
19255;SDS011;9762;52.490;13.410;2023-04-06T04:44:01;11.80;;;7.00;;
19255;SDS011;9762;52.490;13.410;2023-04-06T04:46:27;10.90;;;6.70;;
19255;SDS011;9762;52.490;13.410;2023-04-06T04:48:53;21.63;;;15.00;;
19255;SDS011;9762;52.490;13.410;2023-04-06T04:51:18;19.10;;;11.80;;
19255;SDS011;9762;52.490;13.410;2023-04-06T04:53:45;10.33;;;7.80;;
19255;SDS011;9762;52.490;13.410;2023-04-06T04:56:10;10.40;;;6.70;;
19255;SDS011;9762;52.490;13.410;2023-04-06T04:58:36;7.73;;;6.70;;
19255;SDS011;9762;52.490;13.410;2023-04-06T05:01:02;13.63;;;11.20;;
19255;SDS011;9762;52.490;13.410;2023-04-06T05:03:27;21.47;;;11.93;;
19255;SDS011;9762;52.490;13.410;2023-04-06T05:05:53;35.07;;;22.83;;
19255;SDS011;9762;52.490;13.410;2023-04-06T05:08:19;8.73;;;7.77;;
19255;SDS011;9762;52.490;13.410;2023-04-06T05:10:45;7.83;;;6.60;;
19255;SDS011;9762;52.490;13.410;2023-04-06T05:13:13;8.23;;;6.23;;
19255;SDS011;9762;52.490;13.410;2023-04-06T05:15:39;10.10;;;7.17;;
19255;SDS011;9762;52.490;13.410;2023-04-06T05:18:05;10.03;;;6.50;;
19255;SDS011;9762;52.490;13.410;2023-04-06T05:20:35;6.40;;;5.80;;
19255;SDS011;9762;52.490;13.410;2023-04-06T05:23:03;7.27;;;6.23;;
19255;SDS011;9762;52.490;13.410;2023-04-06T05:25:29;41.17;;;27.00;;
19255;SDS011;9762;52.490;13.410;2023-04-06T05:27:54;37.20;;;25.00;;
19255;SDS011;9762;52.490;13.410;2023-04-06T05:30:20;10.20;;;8.30;;
19255;SDS011;9762;52.490;13.410;2023-04-06T05:32:46;11.40;;;6.30;;
19255;SDS011;9762;52.490;13.410;2023-04-06T05:35:12;7.63;;;6.60;;
19255;SDS011;9762;52.490;13.410;2023-04-06T05:37:38;7.77;;;7.07;;
19255;SDS011;9762;52.490;13.410;2023-04-06T05:40:04;8.97;;;6.43;;
19255;SDS011;9762;52.490;13.410;2023-04-06T05:42:38;6.97;;;6.27;;
19255;SDS011;9762;52.490;13.410;2023-04-06T05:45:04;7.50;;;6.07;;
19255;SDS011;9762;52.490;13.410;2023-04-06T05:47:31;8.97;;;6.47;;
19255;SDS011;9762;52.490;13.410;2023-04-06T05:49:57;11.10;;;6.20;;
19255;SDS011;9762;52.490;13.410;2023-04-06T05:52:23;7.20;;;5.80;;
19255;SDS011;9762;52.490;13.410;2023-04-06T05:54:48;7.90;;;5.83;;
19255;SDS011;9762;52.490;13.410;2023-04-06T05:57:15;8.40;;;6.33;;
19255;SDS011;9762;52.490;13.410;2023-04-06T05:59:41;10.17;;;6.17;;
19255;SDS011;9762;52.490;13.410;2023-04-06T06:02:07;7.60;;;6.27;;
19255;SDS011;9762;52.490;13.410;2023-04-06T06:04:33;12.10;;;5.93;;
19255;SDS011;9762;52.490;13.410;2023-04-06T06:06:58;13.47;;;8.87;;
19255;SDS011;9762;52.490;13.410;2023-04-06T06:09:25;10.57;;;7.00;;
19255;SDS011;9762;52.490;13.410;2023-04-06T06:11:51;9.10;;;6.00;;
19255;SDS011;9762;52.490;13.410;2023-04-06T06:14:16;9.87;;;6.60;;
19255;SDS011;9762;52.490;13.410;2023-04-06T06:16:42;10.10;;;6.07;;
19255;SDS011;9762;52.490;13.410;2023-04-06T06:19:08;6.80;;;5.23;;
19255;SDS011;9762;52.490;13.410;2023-04-06T06:21:34;6.00;;;5.43;;
19255;SDS011;9762;52.490;13.410;2023-04-06T06:23:59;9.13;;;5.57;;
19255;SDS011;9762;52.490;13.410;2023-04-06T06:26:25;8.93;;;5.27;;
19255;SDS011;9762;52.490;13.410;2023-04-06T06:28:51;8.77;;;5.37;;
19255;SDS011;9762;52.490;13.410;2023-04-06T06:31:16;8.03;;;4.80;;
19255;SDS011;9762;52.490;13.410;2023-04-06T06:33:45;7.60;;;5.70;;
19255;SDS011;9762;52.490;13.410;2023-04-06T06:36:11;7.70;;;5.30;;
19255;SDS011;9762;52.490;13.410;2023-04-06T06:38:37;9.43;;;6.43;;
19255;SDS011;9762;52.490;13.410;2023-04-06T06:41:03;8.63;;;6.43;;
19255;SDS011;9762;52.490;13.410;2023-04-06T06:43:29;5.10;;;4.67;;
19255;SDS011;9762;52.490;13.410;2023-04-06T06:45:55;8.93;;;5.60;;
19255;SDS011;9762;52.490;13.410;2023-04-06T06:48:20;6.23;;;5.30;;
19255;SDS011;9762;52.490;13.410;2023-04-06T06:50:47;6.13;;;5.63;;
19255;SDS011;9762;52.490;13.410;2023-04-06T06:53:13;7.83;;;5.13;;
19255;SDS011;9762;52.490;13.410;2023-04-06T06:55:39;35.07;;;23.63;;
19255;SDS011;9762;52.490;13.410;2023-04-06T06:58:05;22.10;;;15.27;;
19255;SDS011;9762;52.490;13.410;2023-04-06T07:00:31;11.03;;;8.50;;
19255;SDS011;9762;52.490;13.410;2023-04-06T07:02:57;7.63;;;6.93;;
19255;SDS011;9762;52.490;13.410;2023-04-06T07:05:23;8.77;;;6.53;;
19255;SDS011;9762;52.490;13.410;2023-04-06T07:07:49;8.90;;;7.50;;
19255;SDS011;9762;52.490;13.410;2023-04-06T07:10:15;8.83;;;6.00;;
19255;SDS011;9762;52.490;13.410;2023-04-06T07:12:40;7.80;;;5.73;;
19255;SDS011;9762;52.490;13.410;2023-04-06T07:15:06;9.23;;;5.30;;
19255;SDS011;9762;52.490;13.410;2023-04-06T07:17:32;9.23;;;5.47;;
19255;SDS011;9762;52.490;13.410;2023-04-06T07:19:58;6.63;;;5.73;;
19255;SDS011;9762;52.490;13.410;2023-04-06T07:22:24;8.40;;;5.93;;
19255;SDS011;9762;52.490;13.410;2023-04-06T07:24:49;5.97;;;5.37;;
19255;SDS011;9762;52.490;13.410;2023-04-06T07:27:15;8.97;;;5.53;;
19255;SDS011;9762;52.490;13.410;2023-04-06T07:29:42;6.20;;;5.13;;
19255;SDS011;9762;52.490;13.410;2023-04-06T07:32:07;18.93;;;8.80;;
19255;SDS011;9762;52.490;13.410;2023-04-06T07:34:33;9.90;;;6.73;;
19255;SDS011;9762;52.490;13.410;2023-04-06T07:36:59;11.27;;;5.97;;
19255;SDS011;9762;52.490;13.410;2023-04-06T07:39:25;10.70;;;5.93;;
19255;SDS011;9762;52.490;13.410;2023-04-06T07:41:52;5.17;;;4.73;;
19255;SDS011;9762;52.490;13.410;2023-04-06T07:44:18;9.63;;;4.60;;
19255;SDS011;9762;52.490;13.410;2023-04-06T07:46:43;6.17;;;4.20;;
19255;SDS011;9762;52.490;13.410;2023-04-06T07:49:09;4.93;;;4.30;;
19255;SDS011;9762;52.490;13.410;2023-04-06T07:51:36;5.27;;;4.50;;
19255;SDS011;9762;52.490;13.410;2023-04-06T07:54:02;4.40;;;3.90;;
19255;SDS011;9762;52.490;13.410;2023-04-06T07:56:28;8.73;;;4.13;;
19255;SDS011;9762;52.490;13.410;2023-04-06T07:58:54;5.00;;;3.30;;
19255;SDS011;9762;52.490;13.410;2023-04-06T08:01:22;6.90;;;3.60;;
19255;SDS011;9762;52.490;13.410;2023-04-06T08:03:48;6.93;;;3.87;;
19255;SDS011;9762;52.490;13.410;2023-04-06T08:06:14;4.37;;;3.93;;
19255;SDS011;9762;52.490;13.410;2023-04-06T08:08:40;4.10;;;3.77;;
19255;SDS011;9762;52.490;13.410;2023-04-06T08:11:07;6.80;;;4.07;;
19255;SDS011;9762;52.490;13.410;2023-04-06T08:13:33;5.43;;;3.40;;
19255;SDS011;9762;52.490;13.410;2023-04-06T08:15:59;6.83;;;3.73;;
19255;SDS011;9762;52.490;13.410;2023-04-06T08:18:25;5.13;;;3.87;;
19255;SDS011;9762;52.490;13.410;2023-04-06T08:20:51;3.50;;;3.20;;
19255;SDS011;9762;52.490;13.410;2023-04-06T08:23:16;3.10;;;2.80;;
19255;SDS011;9762;52.490;13.410;2023-04-06T08:25:42;7.00;;;3.60;;
19255;SDS011;9762;52.490;13.410;2023-04-06T08:28:08;4.93;;;3.03;;
19255;SDS011;9762;52.490;13.410;2023-04-06T08:30:34;4.33;;;3.20;;
19255;SDS011;9762;52.490;13.410;2023-04-06T08:33:00;15.17;;;9.00;;
19255;SDS011;9762;52.490;13.410;2023-04-06T08:35:26;3.40;;;2.90;;
19255;SDS011;9762;52.490;13.410;2023-04-06T08:37:52;3.13;;;2.83;;
19255;SDS011;9762;52.490;13.410;2023-04-06T08:40:18;4.03;;;2.87;;
19255;SDS011;9762;52.490;13.410;2023-04-06T08:42:44;5.13;;;3.00;;
19255;SDS011;9762;52.490;13.410;2023-04-06T08:45:20;5.07;;;2.70;;
19255;SDS011;9762;52.490;13.410;2023-04-06T08:47:55;4.60;;;2.13;;
19255;SDS011;9762;52.490;13.410;2023-04-06T08:50:24;3.57;;;3.27;;
19255;SDS011;9762;52.490;13.410;2023-04-06T08:52:51;3.77;;;3.47;;
19255;SDS011;9762;52.490;13.410;2023-04-06T08:55:16;2.73;;;2.53;;
19255;SDS011;9762;52.490;13.410;2023-04-06T08:57:42;2.57;;;2.37;;
19255;SDS011;9762;52.490;13.410;2023-04-06T09:00:09;23.47;;;15.50;;
19255;SDS011;9762;52.490;13.410;2023-04-06T09:02:39;7.63;;;3.13;;
19255;SDS011;9762;52.490;13.410;2023-04-06T09:05:07;3.60;;;2.77;;
19255;SDS011;9762;52.490;13.410;2023-04-06T09:07:35;4.70;;;2.40;;
19255;SDS011;9762;52.490;13.410;2023-04-06T09:10:01;4.70;;;2.37;;
19255;SDS011;9762;52.490;13.410;2023-04-06T09:12:29;3.17;;;2.27;;
19255;SDS011;9762;52.490;13.410;2023-04-06T09:14:56;3.37;;;2.50;;
19255;SDS011;9762;52.490;13.410;2023-04-06T09:17:24;2.37;;;2.17;;
19255;SDS011;9762;52.490;13.410;2023-04-06T09:19:59;2.57;;;2.37;;
19255;SDS011;9762;52.490;13.410;2023-04-06T09:22:34;2.53;;;2.27;;
19255;SDS011;9762;52.490;13.410;2023-04-06T09:25:00;2.57;;;2.30;;
19255;SDS011;9762;52.490;13.410;2023-04-06T09:27:32;4.17;;;2.20;;
19255;SDS011;9762;52.490;13.410;2023-04-06T09:30:10;2.47;;;2.27;;
19255;SDS011;9762;52.490;13.410;2023-04-06T09:32:45;2.47;;;2.27;;
19255;SDS011;9762;52.490;13.410;2023-04-06T09:35:11;2.80;;;2.30;;
19255;SDS011;9762;52.490;13.410;2023-04-06T09:37:37;2.33;;;2.23;;
19255;SDS011;9762;52.490;13.410;2023-04-06T09:40:03;2.60;;;2.40;;
19255;SDS011;9762;52.490;13.410;2023-04-06T09:42:31;2.17;;;1.97;;
19255;SDS011;9762;52.490;13.410;2023-04-06T09:44:57;2.40;;;2.20;;
19255;SDS011;9762;52.490;13.410;2023-04-06T09:47:22;2.27;;;2.07;;
19255;SDS011;9762;52.490;13.410;2023-04-06T09:49:51;3.43;;;2.30;;
19255;SDS011;9762;52.490;13.410;2023-04-06T09:52:21;3.30;;;2.27;;
19255;SDS011;9762;52.490;13.410;2023-04-06T09:54:49;2.33;;;2.13;;
19255;SDS011;9762;52.490;13.410;2023-04-06T10:02:32;2.37;;;2.03;;
19255;SDS011;9762;52.490;13.410;2023-04-06T10:05:33;2.33;;;1.70;;
19255;SDS011;9762;52.490;13.410;2023-04-06T10:08:10;1.73;;;1.63;;
19255;SDS011;9762;52.490;13.410;2023-04-06T10:10:37;2.00;;;1.77;;
19255;SDS011;9762;52.490;13.410;2023-04-06T10:13:06;2.10;;;2.00;;
19255;SDS011;9762;52.490;13.410;2023-04-06T10:15:35;2.10;;;2.00;;
19255;SDS011;9762;52.490;13.410;2023-04-06T10:18:03;1.93;;;1.83;;
19255;SDS011;9762;52.490;13.410;2023-04-06T10:23:24;3.60;;;3.30;;
19255;SDS011;9762;52.490;13.410;2023-04-06T10:25:58;3.90;;;2.27;;
19255;SDS011;9762;52.490;13.410;2023-04-06T10:28:25;1.40;;;1.40;;
19255;SDS011;9762;52.490;13.410;2023-04-06T10:31:04;1.60;;;1.50;;
19255;SDS011;9762;52.490;13.410;2023-04-06T10:33:31;1.90;;;1.50;;
19255;SDS011;9762;52.490;13.410;2023-04-06T10:35:57;1.50;;;1.47;;
19255;SDS011;9762;52.490;13.410;2023-04-06T10:38:37;1.60;;;1.50;;
19255;SDS011;9762;52.490;13.410;2023-04-06T10:41:08;1.77;;;1.67;;
19255;SDS011;9762;52.490;13.410;2023-04-06T10:43:35;1.60;;;1.57;;
19255;SDS011;9762;52.490;13.410;2023-04-06T10:46:02;1.87;;;1.73;;
19255;SDS011;9762;52.490;13.410;2023-04-06T10:48:42;1.67;;;1.57;;
19255;SDS011;9762;52.490;13.410;2023-04-06T10:51:13;6.57;;;4.80;;
19255;SDS011;9762;52.490;13.410;2023-04-06T10:53:44;5.60;;;2.00;;
19255;SDS011;9762;52.490;13.410;2023-04-06T10:56:13;1.67;;;1.60;;
19255;SDS011;9762;52.490;13.410;2023-04-06T10:58:52;2.00;;;1.80;;
19255;SDS011;9762;52.490;13.410;2023-04-06T11:01:21;2.40;;;2.20;;
19255;SDS011;9762;52.490;13.410;2023-04-06T11:03:48;2.53;;;2.43;;
19255;SDS011;9762;52.490;13.410;2023-04-06T11:06:22;2.47;;;2.03;;
19255;SDS011;9762;52.490;13.410;2023-04-06T11:08:48;3.20;;;2.20;;
19255;SDS011;9762;52.490;13.410;2023-04-06T11:11:16;2.67;;;2.57;;
19255;SDS011;9762;52.490;13.410;2023-04-06T11:13:46;3.00;;;2.80;;
19255;SDS011;9762;52.490;13.410;2023-04-06T11:18:47;3.45;;;2.15;;
19255;SDS011;9762;52.490;13.410;2023-04-06T11:21:13;2.97;;;2.08;;
19255;SDS011;9762;52.490;13.410;2023-04-06T11:23:38;2.95;;;2.30;;
19255;SDS011;9762;52.490;13.410;2023-04-06T11:26:04;2.25;;;2.10;;
19255;SDS011;9762;52.490;13.410;2023-04-06T11:28:41;2.85;;;2.50;;
19255;SDS011;9762;52.490;13.410;2023-04-06T11:31:10;2.20;;;2.10;;
19255;SDS011;9762;52.490;13.410;2023-04-06T11:33:37;2.67;;;2.22;;
19255;SDS011;9762;52.490;13.410;2023-04-06T11:36:04;2.53;;;2.35;;
19255;SDS011;9762;52.490;13.410;2023-04-06T11:38:30;2.38;;;2.15;;
19255;SDS011;9762;52.490;13.410;2023-04-06T11:40:57;2.17;;;2.05;;
19255;SDS011;9762;52.490;13.410;2023-04-06T11:43:46;2.22;;;1.95;;
19255;SDS011;9762;52.490;13.410;2023-04-06T11:46:16;3.85;;;2.30;;
19255;SDS011;9762;52.490;13.410;2023-04-06T11:48:44;2.28;;;2.17;;
19255;SDS011;9762;52.490;13.410;2023-04-06T11:51:10;2.20;;;2.10;;
19255;SDS011;9762;52.490;13.410;2023-04-06T11:53:43;4.15;;;3.00;;
19255;SDS011;9762;52.490;13.410;2023-04-06T11:56:10;4.30;;;3.45;;
19255;SDS011;9762;52.490;13.410;2023-04-06T11:58:36;2.47;;;2.35;;
19255;SDS011;9762;52.490;13.410;2023-04-06T12:01:05;2.30;;;2.10;;
19255;SDS011;9762;52.490;13.410;2023-04-06T12:03:30;2.75;;;2.65;;
19255;SDS011;9762;52.490;13.410;2023-04-06T12:05:56;2.55;;;2.38;;
19255;SDS011;9762;52.490;13.410;2023-04-06T12:08:22;2.47;;;2.35;;
19255;SDS011;9762;52.490;13.410;2023-04-06T12:10:50;2.58;;;2.38;;
19255;SDS011;9762;52.490;13.410;2023-04-06T12:13:16;2.47;;;2.38;;
19255;SDS011;9762;52.490;13.410;2023-04-06T12:15:41;2.45;;;2.25;;
19255;SDS011;9762;52.490;13.410;2023-04-06T12:18:07;2.30;;;2.20;;
19255;SDS011;9762;52.490;13.410;2023-04-06T12:20:33;1.98;;;1.88;;
19255;SDS011;9762;52.490;13.410;2023-04-06T12:22:59;5.85;;;3.90;;
19255;SDS011;9762;52.490;13.410;2023-04-06T12:25:25;3.35;;;3.15;;
19255;SDS011;9762;52.490;13.410;2023-04-06T12:27:50;2.60;;;2.45;;
19255;SDS011;9762;52.490;13.410;2023-04-06T12:30:16;2.45;;;2.35;;
19255;SDS011;9762;52.490;13.410;2023-04-06T12:32:42;2.22;;;2.13;;
19255;SDS011;9762;52.490;13.410;2023-04-06T12:35:08;2.13;;;2.03;;
19255;SDS011;9762;52.490;13.410;2023-04-06T12:37:34;2.63;;;2.45;;
19255;SDS011;9762;52.490;13.410;2023-04-06T12:40:00;2.58;;;2.38;;
19255;SDS011;9762;52.490;13.410;2023-04-06T12:42:27;3.03;;;2.17;;
19255;SDS011;9762;52.490;13.410;2023-04-06T12:44:52;2.50;;;2.00;;
19255;SDS011;9762;52.490;13.410;2023-04-06T12:47:18;5.07;;;2.60;;
19255;SDS011;9762;52.490;13.410;2023-04-06T12:49:43;2.50;;;2.40;;
19255;SDS011;9762;52.490;13.410;2023-04-06T12:52:10;2.45;;;2.30;;
19255;SDS011;9762;52.490;13.410;2023-04-06T12:54:36;3.05;;;2.95;;
19255;SDS011;9762;52.490;13.410;2023-04-06T12:57:01;6.05;;;5.65;;
19255;SDS011;9762;52.490;13.410;2023-04-06T12:59:27;2.80;;;2.60;;
19255;SDS011;9762;52.490;13.410;2023-04-06T13:01:59;3.58;;;2.55;;
19255;SDS011;9762;52.490;13.410;2023-04-06T13:04:25;2.40;;;2.30;;
19255;SDS011;9762;52.490;13.410;2023-04-06T13:06:51;2.97;;;2.75;;
19255;SDS011;9762;52.490;13.410;2023-04-06T13:09:17;2.42;;;2.15;;
19255;SDS011;9762;52.490;13.410;2023-04-06T13:11:42;2.25;;;2.03;;
19255;SDS011;9762;52.490;13.410;2023-04-06T13:14:08;2.53;;;2.33;;
19255;SDS011;9762;52.490;13.410;2023-04-06T13:16:34;2.58;;;2.38;;
19255;SDS011;9762;52.490;13.410;2023-04-06T13:19:01;3.10;;;2.90;;
19255;SDS011;9762;52.490;13.410;2023-04-06T13:21:27;4.13;;;2.55;;
19255;SDS011;9762;52.490;13.410;2023-04-06T13:23:53;2.50;;;2.30;;
19255;SDS011;9762;52.490;13.410;2023-04-06T13:26:18;2.28;;;2.20;;
19255;SDS011;9762;52.490;13.410;2023-04-06T13:28:45;2.42;;;2.33;;
19255;SDS011;9762;52.490;13.410;2023-04-06T13:31:10;2.40;;;2.30;;
19255;SDS011;9762;52.490;13.410;2023-04-06T13:33:36;2.40;;;2.30;;
19255;SDS011;9762;52.490;13.410;2023-04-06T13:36:03;2.60;;;2.50;;
19255;SDS011;9762;52.490;13.410;2023-04-06T13:38:31;2.58;;;2.45;;
19255;SDS011;9762;52.490;13.410;2023-04-06T13:40:58;3.72;;;2.50;;
19255;SDS011;9762;52.490;13.410;2023-04-06T13:43:24;3.05;;;2.85;;
19255;SDS011;9762;52.490;13.410;2023-04-06T13:45:55;2.90;;;2.70;;
19255;SDS011;9762;52.490;13.410;2023-04-06T13:48:23;2.90;;;2.70;;
19255;SDS011;9762;52.490;13.410;2023-04-06T13:50:49;2.35;;;2.25;;
19255;SDS011;9762;52.490;13.410;2023-04-06T13:53:15;2.85;;;2.67;;
19255;SDS011;9762;52.490;13.410;2023-04-06T13:55:40;3.00;;;2.20;;
19255;SDS011;9762;52.490;13.410;2023-04-06T13:58:06;3.05;;;2.30;;
19255;SDS011;9762;52.490;13.410;2023-04-06T14:00:32;2.38;;;1.80;;
19255;SDS011;9762;52.490;13.410;2023-04-06T14:02:57;3.08;;;1.92;;
19255;SDS011;9762;52.490;13.410;2023-04-06T14:05:23;2.50;;;2.30;;
19255;SDS011;9762;52.490;13.410;2023-04-06T14:07:49;3.80;;;2.50;;
19255;SDS011;9762;52.490;13.410;2023-04-06T14:10:15;2.10;;;2.00;;
19255;SDS011;9762;52.490;13.410;2023-04-06T14:12:44;2.83;;;1.98;;
19255;SDS011;9762;52.490;13.410;2023-04-06T14:15:10;2.80;;;2.60;;
19255;SDS011;9762;52.490;13.410;2023-04-06T14:17:37;4.20;;;2.35;;
19255;SDS011;9762;52.490;13.410;2023-04-06T14:20:03;3.75;;;2.35;;
19255;SDS011;9762;52.490;13.410;2023-04-06T14:22:31;2.58;;;2.38;;
19255;SDS011;9762;52.490;13.410;2023-04-06T14:24:56;3.53;;;2.38;;
19255;SDS011;9762;52.490;13.410;2023-04-06T14:27:23;7.70;;;2.40;;
19255;SDS011;9762;52.490;13.410;2023-04-06T14:29:49;3.90;;;2.10;;
19255;SDS011;9762;52.490;13.410;2023-04-06T14:32:15;2.15;;;2.08;;
19255;SDS011;9762;52.490;13.410;2023-04-06T14:34:41;2.63;;;2.42;;
19255;SDS011;9762;52.490;13.410;2023-04-06T14:37:07;2.40;;;2.30;;
19255;SDS011;9762;52.490;13.410;2023-04-06T14:39:33;3.38;;;2.47;;
19255;SDS011;9762;52.490;13.410;2023-04-06T14:41:58;2.45;;;2.35;;
19255;SDS011;9762;52.490;13.410;2023-04-06T14:44:24;2.50;;;2.35;;
19255;SDS011;9762;52.490;13.410;2023-04-06T14:46:50;2.80;;;2.50;;
19255;SDS011;9762;52.490;13.410;2023-04-06T14:49:15;1.90;;;1.90;;
19255;SDS011;9762;52.490;13.410;2023-04-06T14:51:41;2.17;;;1.88;;
19255;SDS011;9762;52.490;13.410;2023-04-06T14:54:07;1.80;;;1.80;;